sensor_id;sensor_type;location;lat;lon;timestamp;temperature;humidity
21662;DHT22;10992;48.170;8.596;2022-12-07T00:01:36;1.00;99.90
21662;DHT22;10992;48.170;8.596;2022-12-07T00:04:07;1.10;99.90
21662;DHT22;10992;48.170;8.596;2022-12-07T00:06:37;1.10;99.90
21662;DHT22;10992;48.170;8.596;2022-12-07T00:09:13;1.00;99.90
21662;DHT22;10992;48.170;8.596;2022-12-07T00:11:40;1.00;99.90
21662;DHT22;10992;48.170;8.596;2022-12-07T00:14:12;1.00;99.90
21662;DHT22;10992;48.170;8.596;2022-12-07T00:16:40;1.00;99.90
21662;DHT22;10992;48.170;8.596;2022-12-07T00:19:08;0.90;99.90
21662;DHT22;10992;48.170;8.596;2022-12-07T00:21:36;0.90;99.90
21662;DHT22;10992;48.170;8.596;2022-12-07T00:24:04;0.80;99.90
21662;DHT22;10992;48.170;8.596;2022-12-07T00:26:36;0.90;99.90
21662;DHT22;10992;48.170;8.596;2022-12-07T00:29:25;0.90;99.90
21662;DHT22;10992;48.170;8.596;2022-12-07T00:31:52;0.90;99.90
21662;DHT22;10992;48.170;8.596;2022-12-07T00:34:20;0.90;99.90
21662;DHT22;10992;48.170;8.596;2022-12-07T00:36:48;0.80;99.90
21662;DHT22;10992;48.170;8.596;2022-12-07T00:39:16;0.80;99.90
21662;DHT22;10992;48.170;8.596;2022-12-07T00:41:42;0.90;99.90
21662;DHT22;10992;48.170;8.596;2022-12-07T00:44:09;0.90;99.90
21662;DHT22;10992;48.170;8.596;2022-12-07T00:46:36;0.90;99.90
21662;DHT22;10992;48.170;8.596;2022-12-07T00:49:04;0.90;99.90
21662;DHT22;10992;48.170;8.596;2022-12-07T00:51:31;0.80;99.90
21662;DHT22;10992;48.170;8.596;2022-12-07T00:53:58;0.90;99.90
21662;DHT22;10992;48.170;8.596;2022-12-07T00:56:27;0.80;99.90
21662;DHT22;10992;48.170;8.596;2022-12-07T00:58:59;0.80;99.90
21662;DHT22;10992;48.170;8.596;2022-12-07T01:01:30;0.80;99.90
21662;DHT22;10992;48.170;8.596;2022-12-07T01:03:57;0.80;99.90
21662;DHT22;10992;48.170;8.596;2022-12-07T01:06:25;0.90;99.90
21662;DHT22;10992;48.170;8.596;2022-12-07T01:08:52;0.90;99.90
21662;DHT22;10992;48.170;8.596;2022-12-07T01:11:22;0.90;99.90
21662;DHT22;10992;48.170;8.596;2022-12-07T01:13:54;0.90;99.90
21662;DHT22;10992;48.170;8.596;2022-12-07T01:16:23;0.90;99.90
21662;DHT22;10992;48.170;8.596;2022-12-07T01:18:53;0.90;99.90
21662;DHT22;10992;48.170;8.596;2022-12-07T01:21:23;0.90;99.90
21662;DHT22;10992;48.170;8.596;2022-12-07T01:23:51;0.90;99.90
21662;DHT22;10992;48.170;8.596;2022-12-07T01:26:23;0.80;99.90
21662;DHT22;10992;48.170;8.596;2022-12-07T01:28:50;0.90;99.90
21662;DHT22;10992;48.170;8.596;2022-12-07T01:31:20;0.90;99.90
21662;DHT22;10992;48.170;8.596;2022-12-07T01:33:49;0.90;99.90
21662;DHT22;10992;48.170;8.596;2022-12-07T01:36:19;0.90;99.90
21662;DHT22;10992;48.170;8.596;2022-12-07T01:38:48;0.90;99.90
21662;DHT22;10992;48.170;8.596;2022-12-07T01:41:16;0.90;99.90
21662;DHT22;10992;48.170;8.596;2022-12-07T01:46:39;1.00;99.90
21662;DHT22;10992;48.170;8.596;2022-12-07T01:49:12;1.00;99.90
21662;DHT22;10992;48.170;8.596;2022-12-07T01:51:42;0.90;99.90
21662;DHT22;10992;48.170;8.596;2022-12-07T01:54:11;0.90;99.90
21662;DHT22;10992;48.170;8.596;2022-12-07T01:56:41;0.90;99.90
21662;DHT22;10992;48.170;8.596;2022-12-07T01:59:10;1.00;99.90
21662;DHT22;10992;48.170;8.596;2022-12-07T02:01:37;1.00;99.90
21662;DHT22;10992;48.170;8.596;2022-12-07T02:04:05;1.10;99.90
21662;DHT22;10992;48.170;8.596;2022-12-07T02:06:33;0.90;99.90
21662;DHT22;10992;48.170;8.596;2022-12-07T02:09:02;0.90;99.90
21662;DHT22;10992;48.170;8.596;2022-12-07T02:11:29;0.90;99.90
21662;DHT22;10992;48.170;8.596;2022-12-07T02:13:56;0.90;99.90
21662;DHT22;10992;48.170;8.596;2022-12-07T02:16:38;0.90;99.90
21662;DHT22;10992;48.170;8.596;2022-12-07T02:22:07;0.90;99.90
21662;DHT22;10992;48.170;8.596;2022-12-07T02:30:10;0.90;99.90
21662;DHT22;10992;48.170;8.596;2022-12-07T02:32:55;0.80;99.90
21662;DHT22;10992;48.170;8.596;2022-12-07T02:35:30;0.80;99.90
21662;DHT22;10992;48.170;8.596;2022-12-07T02:40:57;0.80;99.90
21662;DHT22;10992;48.170;8.596;2022-12-07T02:43:30;0.90;99.90
21662;DHT22;10992;48.170;8.596;2022-12-07T02:46:04;0.90;99.90
21662;DHT22;10992;48.170;8.596;2022-12-07T02:48:33;0.90;99.90
21662;DHT22;10992;48.170;8.596;2022-12-07T02:51:00;0.90;99.90
21662;DHT22;10992;48.170;8.596;2022-12-07T02:53:41;0.90;99.90
21662;DHT22;10992;48.170;8.596;2022-12-07T03:05:03;0.90;99.90
21662;DHT22;10992;48.170;8.596;2022-12-07T03:18:32;0.80;99.90
21662;DHT22;10992;48.170;8.596;2022-12-07T03:21:04;0.80;99.90
21662;DHT22;10992;48.170;8.596;2022-12-07T03:23:34;0.80;99.90
21662;DHT22;10992;48.170;8.596;2022-12-07T03:26:03;0.80;99.90
21662;DHT22;10992;48.170;8.596;2022-12-07T03:28:34;0.80;99.90
21662;DHT22;10992;48.170;8.596;2022-12-07T03:31:45;0.80;99.90
21662;DHT22;10992;48.170;8.596;2022-12-07T03:34:21;0.70;99.90
21662;DHT22;10992;48.170;8.596;2022-12-07T03:37:04;0.70;99.90
21662;DHT22;10992;48.170;8.596;2022-12-07T03:42:31;0.70;99.90
21662;DHT22;10992;48.170;8.596;2022-12-07T03:45:04;0.70;99.90
21662;DHT22;10992;48.170;8.596;2022-12-07T03:47:54;0.70;99.90
21662;DHT22;10992;48.170;8.596;2022-12-07T03:50:41;0.80;99.90
21662;DHT22;10992;48.170;8.596;2022-12-07T03:53:16;0.70;99.90
21662;DHT22;10992;48.170;8.596;2022-12-07T03:55:46;0.80;99.90
21662;DHT22;10992;48.170;8.596;2022-12-07T03:58:17;0.80;99.90
21662;DHT22;10992;48.170;8.596;2022-12-07T04:00:45;0.80;99.90
21662;DHT22;10992;48.170;8.596;2022-12-07T04:03:12;0.80;99.90
21662;DHT22;10992;48.170;8.596;2022-12-07T04:05:40;0.70;99.90
21662;DHT22;10992;48.170;8.596;2022-12-07T04:08:07;0.80;99.90
21662;DHT22;10992;48.170;8.596;2022-12-07T04:10:34;0.80;99.90
21662;DHT22;10992;48.170;8.596;2022-12-07T04:13:01;0.80;99.90
21662;DHT22;10992;48.170;8.596;2022-12-07T04:15:28;0.70;99.90
21662;DHT22;10992;48.170;8.596;2022-12-07T04:17:55;0.70;99.90
21662;DHT22;10992;48.170;8.596;2022-12-07T04:20:22;0.70;99.90
21662;DHT22;10992;48.170;8.596;2022-12-07T04:22:49;0.70;99.90
21662;DHT22;10992;48.170;8.596;2022-12-07T04:25:16;0.70;99.90
21662;DHT22;10992;48.170;8.596;2022-12-07T04:27:43;0.70;99.90
21662;DHT22;10992;48.170;8.596;2022-12-07T04:30:10;0.70;99.90
21662;DHT22;10992;48.170;8.596;2022-12-07T04:32:37;0.70;99.90
21662;DHT22;10992;48.170;8.596;2022-12-07T04:35:04;0.70;99.90
21662;DHT22;10992;48.170;8.596;2022-12-07T04:37:31;0.60;99.90
21662;DHT22;10992;48.170;8.596;2022-12-07T04:39:58;0.60;99.90
21662;DHT22;10992;48.170;8.596;2022-12-07T04:42:25;0.60;99.90
21662;DHT22;10992;48.170;8.596;2022-12-07T04:44:52;0.60;99.90
21662;DHT22;10992;48.170;8.596;2022-12-07T04:47:19;0.60;99.90
21662;DHT22;10992;48.170;8.596;2022-12-07T04:49:46;0.50;99.90
21662;DHT22;10992;48.170;8.596;2022-12-07T04:52:13;0.50;99.90
21662;DHT22;10992;48.170;8.596;2022-12-07T04:54:40;0.50;99.90
21662;DHT22;10992;48.170;8.596;2022-12-07T04:57:07;0.40;99.90
21662;DHT22;10992;48.170;8.596;2022-12-07T04:59:34;0.40;99.90
21662;DHT22;10992;48.170;8.596;2022-12-07T05:02:01;0.40;99.90
21662;DHT22;10992;48.170;8.596;2022-12-07T05:04:27;0.40;99.90
21662;DHT22;10992;48.170;8.596;2022-12-07T05:06:54;0.30;99.90
21662;DHT22;10992;48.170;8.596;2022-12-07T05:09:21;0.30;99.90
21662;DHT22;10992;48.170;8.596;2022-12-07T05:11:48;0.30;99.90
21662;DHT22;10992;48.170;8.596;2022-12-07T05:14:17;0.20;99.90
21662;DHT22;10992;48.170;8.596;2022-12-07T05:16:47;0.20;99.90
21662;DHT22;10992;48.170;8.596;2022-12-07T05:19:16;0.30;99.90
21662;DHT22;10992;48.170;8.596;2022-12-07T05:21:43;0.30;99.90
21662;DHT22;10992;48.170;8.596;2022-12-07T05:24:12;0.20;99.90
21662;DHT22;10992;48.170;8.596;2022-12-07T05:26:39;0.20;99.90
21662;DHT22;10992;48.170;8.596;2022-12-07T05:29:06;0.20;99.90
21662;DHT22;10992;48.170;8.596;2022-12-07T05:31:33;0.20;99.90
21662;DHT22;10992;48.170;8.596;2022-12-07T05:34:01;0.20;99.90
21662;DHT22;10992;48.170;8.596;2022-12-07T05:36:28;0.20;99.90
21662;DHT22;10992;48.170;8.596;2022-12-07T05:38:55;0.20;99.90
21662;DHT22;10992;48.170;8.596;2022-12-07T05:41:22;0.20;99.90
21662;DHT22;10992;48.170;8.596;2022-12-07T05:44:07;0.20;99.90
21662;DHT22;10992;48.170;8.596;2022-12-07T05:46:35;0.10;99.90
21662;DHT22;10992;48.170;8.596;2022-12-07T05:49:02;0.00;99.90
21662;DHT22;10992;48.170;8.596;2022-12-07T05:51:29;0.00;99.90
21662;DHT22;10992;48.170;8.596;2022-12-07T05:53:55;0.00;99.90
21662;DHT22;10992;48.170;8.596;2022-12-07T05:56:22;0.00;99.90
21662;DHT22;10992;48.170;8.596;2022-12-07T05:58:50;-0.10;99.90
21662;DHT22;10992;48.170;8.596;2022-12-07T06:01:35;-0.10;99.90
21662;DHT22;10992;48.170;8.596;2022-12-07T06:04:02;-0.10;99.90
21662;DHT22;10992;48.170;8.596;2022-12-07T06:06:29;-0.10;99.90
21662;DHT22;10992;48.170;8.596;2022-12-07T06:08:56;-0.10;99.90
21662;DHT22;10992;48.170;8.596;2022-12-07T06:11:23;-0.20;99.90
21662;DHT22;10992;48.170;8.596;2022-12-07T06:14:09;-0.30;99.90
21662;DHT22;10992;48.170;8.596;2022-12-07T06:16:36;-0.40;99.90
21662;DHT22;10992;48.170;8.596;2022-12-07T06:19:03;-0.50;99.90
21662;DHT22;10992;48.170;8.596;2022-12-07T06:21:30;-0.50;99.90
21662;DHT22;10992;48.170;8.596;2022-12-07T06:23:57;-0.60;99.90
21662;DHT22;10992;48.170;8.596;2022-12-07T06:26:23;-0.60;99.90
21662;DHT22;10992;48.170;8.596;2022-12-07T06:28:50;-0.70;99.90
21662;DHT22;10992;48.170;8.596;2022-12-07T06:31:17;-0.70;99.90
21662;DHT22;10992;48.170;8.596;2022-12-07T06:33:44;-0.10;99.90
21662;DHT22;10992;48.170;8.596;2022-12-07T06:36:11;-0.20;99.90
21662;DHT22;10992;48.170;8.596;2022-12-07T06:38:38;-0.20;99.90
21662;DHT22;10992;48.170;8.596;2022-12-07T06:41:05;0.00;99.90
21662;DHT22;10992;48.170;8.596;2022-12-07T06:43:33;-0.10;99.90
21662;DHT22;10992;48.170;8.596;2022-12-07T06:46:00;-0.30;99.90
21662;DHT22;10992;48.170;8.596;2022-12-07T06:48:27;-0.50;99.90
21662;DHT22;10992;48.170;8.596;2022-12-07T06:50:54;-0.70;99.90
21662;DHT22;10992;48.170;8.596;2022-12-07T06:53:22;-0.90;99.90
21662;DHT22;10992;48.170;8.596;2022-12-07T06:55:48;-1.10;99.90
21662;DHT22;10992;48.170;8.596;2022-12-07T06:58:16;-1.20;99.90
21662;DHT22;10992;48.170;8.596;2022-12-07T07:00:44;-1.30;99.90
21662;DHT22;10992;48.170;8.596;2022-12-07T07:03:11;-1.40;99.90
21662;DHT22;10992;48.170;8.596;2022-12-07T07:05:38;-1.50;99.90
21662;DHT22;10992;48.170;8.596;2022-12-07T07:08:07;-1.50;99.90
21662;DHT22;10992;48.170;8.596;2022-12-07T07:10:50;-1.50;99.90
21662;DHT22;10992;48.170;8.596;2022-12-07T07:13:17;-1.50;99.90
21662;DHT22;10992;48.170;8.596;2022-12-07T07:15:44;-1.50;99.90
21662;DHT22;10992;48.170;8.596;2022-12-07T07:18:11;-1.50;99.90
21662;DHT22;10992;48.170;8.596;2022-12-07T07:20:38;-1.70;99.90
21662;DHT22;10992;48.170;8.596;2022-12-07T07:23:05;-1.70;99.90
21662;DHT22;10992;48.170;8.596;2022-12-07T07:25:33;-1.70;99.90
21662;DHT22;10992;48.170;8.596;2022-12-07T07:28:00;-1.60;99.90
21662;DHT22;10992;48.170;8.596;2022-12-07T07:30:27;-1.60;99.90
21662;DHT22;10992;48.170;8.596;2022-12-07T07:33:01;-1.70;99.90
21662;DHT22;10992;48.170;8.596;2022-12-07T07:35:29;-1.70;99.90
21662;DHT22;10992;48.170;8.596;2022-12-07T07:37:56;-1.60;99.90
21662;DHT22;10992;48.170;8.596;2022-12-07T07:40:24;-1.50;99.90
21662;DHT22;10992;48.170;8.596;2022-12-07T07:42:52;-1.50;99.90
21662;DHT22;10992;48.170;8.596;2022-12-07T07:45:21;-1.40;99.90
21662;DHT22;10992;48.170;8.596;2022-12-07T07:47:49;-1.20;99.90
21662;DHT22;10992;48.170;8.596;2022-12-07T07:50:17;-0.20;99.90
21662;DHT22;10992;48.170;8.596;2022-12-07T07:52:44;0.80;99.90
21662;DHT22;10992;48.170;8.596;2022-12-07T07:55:12;1.90;99.90
21662;DHT22;10992;48.170;8.596;2022-12-07T07:57:40;2.40;99.90
21662;DHT22;10992;48.170;8.596;2022-12-07T08:00:12;3.00;99.90
21662;DHT22;10992;48.170;8.596;2022-12-07T08:02:41;3.20;99.90
21662;DHT22;10992;48.170;8.596;2022-12-07T08:05:11;3.00;99.90
21662;DHT22;10992;48.170;8.596;2022-12-07T08:07:39;3.20;99.90
21662;DHT22;10992;48.170;8.596;2022-12-07T08:10:08;3.20;99.90
21662;DHT22;10992;48.170;8.596;2022-12-07T08:12:37;2.50;99.90
21662;DHT22;10992;48.170;8.596;2022-12-07T08:15:36;2.20;99.90
21662;DHT22;10992;48.170;8.596;2022-12-07T08:18:03;1.80;99.90
21662;DHT22;10992;48.170;8.596;2022-12-07T08:20:31;1.50;99.90
21662;DHT22;10992;48.170;8.596;2022-12-07T08:22:59;1.50;99.90
21662;DHT22;10992;48.170;8.596;2022-12-07T08:25:26;1.50;99.90
21662;DHT22;10992;48.170;8.596;2022-12-07T08:27:53;1.70;99.90
21662;DHT22;10992;48.170;8.596;2022-12-07T08:30:21;1.50;99.90
21662;DHT22;10992;48.170;8.596;2022-12-07T08:32:49;1.50;99.90
21662;DHT22;10992;48.170;8.596;2022-12-07T08:35:16;1.70;99.90
21662;DHT22;10992;48.170;8.596;2022-12-07T08:37:43;1.60;99.90
21662;DHT22;10992;48.170;8.596;2022-12-07T08:40:11;1.60;99.90
21662;DHT22;10992;48.170;8.596;2022-12-07T08:42:51;1.70;99.90
21662;DHT22;10992;48.170;8.596;2022-12-07T08:45:19;1.90;99.90
21662;DHT22;10992;48.170;8.596;2022-12-07T08:48:06;2.10;99.90
21662;DHT22;10992;48.170;8.596;2022-12-07T08:50:36;1.90;99.90
21662;DHT22;10992;48.170;8.596;2022-12-07T08:53:04;2.00;99.90
21662;DHT22;10992;48.170;8.596;2022-12-07T08:55:33;2.00;99.90
21662;DHT22;10992;48.170;8.596;2022-12-07T08:58:00;2.00;99.90
21662;DHT22;10992;48.170;8.596;2022-12-07T09:00:28;2.10;99.90
21662;DHT22;10992;48.170;8.596;2022-12-07T09:02:55;2.30;99.90
21662;DHT22;10992;48.170;8.596;2022-12-07T09:05:22;2.20;99.90
21662;DHT22;10992;48.170;8.596;2022-12-07T09:07:52;2.10;99.90
21662;DHT22;10992;48.170;8.596;2022-12-07T09:10:21;2.20;99.90
21662;DHT22;10992;48.170;8.596;2022-12-07T09:12:49;2.50;99.90
21662;DHT22;10992;48.170;8.596;2022-12-07T09:15:16;3.40;99.90
21662;DHT22;10992;48.170;8.596;2022-12-07T09:17:43;4.60;99.90
21662;DHT22;10992;48.170;8.596;2022-12-07T09:20:10;6.00;99.90
21662;DHT22;10992;48.170;8.596;2022-12-07T09:22:37;6.30;99.90
21662;DHT22;10992;48.170;8.596;2022-12-07T09:25:04;6.90;99.90
21662;DHT22;10992;48.170;8.596;2022-12-07T09:27:31;7.10;99.90
21662;DHT22;10992;48.170;8.596;2022-12-07T09:29:58;7.00;99.90
21662;DHT22;10992;48.170;8.596;2022-12-07T09:32:25;7.60;99.90
21662;DHT22;10992;48.170;8.596;2022-12-07T09:34:53;8.30;99.90
21662;DHT22;10992;48.170;8.596;2022-12-07T09:37:20;8.90;99.90
21662;DHT22;10992;48.170;8.596;2022-12-07T09:39:46;8.80;99.90
21662;DHT22;10992;48.170;8.596;2022-12-07T09:42:36;8.30;99.90
21662;DHT22;10992;48.170;8.596;2022-12-07T09:45:10;8.00;99.90
21662;DHT22;10992;48.170;8.596;2022-12-07T09:47:38;8.50;99.90
21662;DHT22;10992;48.170;8.596;2022-12-07T09:50:27;9.40;99.90
21662;DHT22;10992;48.170;8.596;2022-12-07T09:53:03;9.70;99.90
21662;DHT22;10992;48.170;8.596;2022-12-07T09:55:33;8.60;99.90
21662;DHT22;10992;48.170;8.596;2022-12-07T09:58:02;8.70;99.90
21662;DHT22;10992;48.170;8.596;2022-12-07T10:00:30;8.90;99.90
21662;DHT22;10992;48.170;8.596;2022-12-07T10:02:59;9.40;99.90
21662;DHT22;10992;48.170;8.596;2022-12-07T10:08:01;8.30;99.90
21662;DHT22;10992;48.170;8.596;2022-12-07T10:10:33;8.30;99.90
21662;DHT22;10992;48.170;8.596;2022-12-07T10:13:18;8.40;99.90
21662;DHT22;10992;48.170;8.596;2022-12-07T10:15:55;8.40;99.90
21662;DHT22;10992;48.170;8.596;2022-12-07T10:18:37;8.50;99.90
21662;DHT22;10992;48.170;8.596;2022-12-07T10:23:38;8.90;99.90
21662;DHT22;10992;48.170;8.596;2022-12-07T10:26:50;7.80;99.90
21662;DHT22;10992;48.170;8.596;2022-12-07T10:29:32;7.40;99.90
21662;DHT22;10992;48.170;8.596;2022-12-07T10:32:03;6.70;99.90
21662;DHT22;10992;48.170;8.596;2022-12-07T10:34:34;8.10;99.90
21662;DHT22;10992;48.170;8.596;2022-12-07T10:39:57;8.10;99.90
21662;DHT22;10992;48.170;8.596;2022-12-07T10:42:32;7.90;99.90
21662;DHT22;10992;48.170;8.596;2022-12-07T10:45:17;7.20;99.90
21662;DHT22;10992;48.170;8.596;2022-12-07T10:50:41;8.40;99.90
21662;DHT22;10992;48.170;8.596;2022-12-07T11:07:07;8.20;99.90
21662;DHT22;10992;48.170;8.596;2022-12-07T11:09:58;8.90;99.90
21662;DHT22;10992;48.170;8.596;2022-12-07T11:12:42;9.40;99.90
21662;DHT22;10992;48.170;8.596;2022-12-07T11:23:49;8.50;99.90
21662;DHT22;10992;48.170;8.596;2022-12-07T11:37:17;7.40;99.90
21662;DHT22;10992;48.170;8.596;2022-12-07T11:39:52;7.90;99.90
21662;DHT22;10992;48.170;8.596;2022-12-07T11:42:41;8.30;99.90
21662;DHT22;10992;48.170;8.596;2022-12-07T11:45:26;8.70;99.90
21662;DHT22;10992;48.170;8.596;2022-12-07T11:48:01;8.30;99.90
21662;DHT22;10992;48.170;8.596;2022-12-07T11:50:43;8.20;99.90
21662;DHT22;10992;48.170;8.596;2022-12-07T12:03:54;8.70;99.90
21662;DHT22;10992;48.170;8.596;2022-12-07T12:06:23;8.50;99.90
21662;DHT22;10992;48.170;8.596;2022-12-07T12:09:00;7.70;99.90
21662;DHT22;10992;48.170;8.596;2022-12-07T12:23:12;8.10;99.90
21662;DHT22;10992;48.170;8.596;2022-12-07T12:25:50;8.30;99.90
21662;DHT22;10992;48.170;8.596;2022-12-07T12:31:14;7.10;99.90
21662;DHT22;10992;48.170;8.596;2022-12-07T12:33:56;7.90;99.90
21662;DHT22;10992;48.170;8.596;2022-12-07T12:47:02;8.50;99.90
21662;DHT22;10992;48.170;8.596;2022-12-07T12:55:22;8.90;99.90
21662;DHT22;10992;48.170;8.596;2022-12-07T13:01:30;6.60;99.90
21662;DHT22;10992;48.170;8.596;2022-12-07T13:03:36;6.30;99.90
21662;DHT22;10992;48.170;8.596;2022-12-07T13:08:56;5.70;99.90
21662;DHT22;10992;48.170;8.596;2022-12-07T13:11:35;5.50;99.90
21662;DHT22;10992;48.170;8.596;2022-12-07T13:20:06;4.80;99.90
21662;DHT22;10992;48.170;8.596;2022-12-07T13:22:44;4.70;99.90
21662;DHT22;10992;48.170;8.596;2022-12-07T13:25:56;4.80;99.90
21662;DHT22;10992;48.170;8.596;2022-12-07T13:28:31;5.00;99.90
21662;DHT22;10992;48.170;8.596;2022-12-07T13:33:47;4.90;99.90
21662;DHT22;10992;48.170;8.596;2022-12-07T13:36:25;4.90;99.90
21662;DHT22;10992;48.170;8.596;2022-12-07T13:38:59;4.90;99.90
21662;DHT22;10992;48.170;8.596;2022-12-07T13:41:28;4.40;99.90
21662;DHT22;10992;48.170;8.596;2022-12-07T13:44:09;4.10;99.90
21662;DHT22;10992;48.170;8.596;2022-12-07T13:49:36;3.90;99.90
21662;DHT22;10992;48.170;8.596;2022-12-07T13:55:01;3.80;99.90
21662;DHT22;10992;48.170;8.596;2022-12-07T13:57:30;3.60;99.90
21662;DHT22;10992;48.170;8.596;2022-12-07T13:59:58;3.50;99.90
21662;DHT22;10992;48.170;8.596;2022-12-07T14:02:28;3.60;99.90
21662;DHT22;10992;48.170;8.596;2022-12-07T14:05:23;3.50;99.90
21662;DHT22;10992;48.170;8.596;2022-12-07T14:10:32;3.50;99.90
21662;DHT22;10992;48.170;8.596;2022-12-07T14:13:01;3.40;99.90
21662;DHT22;10992;48.170;8.596;2022-12-07T14:15:31;3.20;99.90
21662;DHT22;10992;48.170;8.596;2022-12-07T14:17:59;3.10;99.90
21662;DHT22;10992;48.170;8.596;2022-12-07T14:20:34;3.10;99.90
21662;DHT22;10992;48.170;8.596;2022-12-07T14:23:02;3.10;99.90
21662;DHT22;10992;48.170;8.596;2022-12-07T14:25:49;3.00;99.90
21662;DHT22;10992;48.170;8.596;2022-12-07T14:28:29;2.90;99.90
21662;DHT22;10992;48.170;8.596;2022-12-07T14:30:58;2.80;99.90
21662;DHT22;10992;48.170;8.596;2022-12-07T14:33:26;2.90;99.90
21662;DHT22;10992;48.170;8.596;2022-12-07T14:35:53;2.80;99.90
21662;DHT22;10992;48.170;8.596;2022-12-07T14:38:25;2.90;99.90
21662;DHT22;10992;48.170;8.596;2022-12-07T14:40:53;2.90;99.90
21662;DHT22;10992;48.170;8.596;2022-12-07T14:43:21;2.80;99.90
21662;DHT22;10992;48.170;8.596;2022-12-07T14:45:48;2.80;99.90
21662;DHT22;10992;48.170;8.596;2022-12-07T14:48:15;2.80;99.90
21662;DHT22;10992;48.170;8.596;2022-12-07T14:51:03;2.80;99.90
21662;DHT22;10992;48.170;8.596;2022-12-07T14:53:52;2.80;99.90
21662;DHT22;10992;48.170;8.596;2022-12-07T14:56:24;2.70;99.90
21662;DHT22;10992;48.170;8.596;2022-12-07T14:58:51;2.70;99.90
21662;DHT22;10992;48.170;8.596;2022-12-07T15:01:18;2.60;99.90
21662;DHT22;10992;48.170;8.596;2022-12-07T15:03:45;2.50;99.90
21662;DHT22;10992;48.170;8.596;2022-12-07T15:06:17;2.50;99.90
21662;DHT22;10992;48.170;8.596;2022-12-07T15:08:44;2.30;99.90
21662;DHT22;10992;48.170;8.596;2022-12-07T15:11:15;2.20;99.90
21662;DHT22;10992;48.170;8.596;2022-12-07T15:13:42;2.20;99.90
21662;DHT22;10992;48.170;8.596;2022-12-07T15:16:28;2.10;99.90
21662;DHT22;10992;48.170;8.596;2022-12-07T15:19:17;1.90;99.90
21662;DHT22;10992;48.170;8.596;2022-12-07T15:21:54;2.00;99.90
21662;DHT22;10992;48.170;8.596;2022-12-07T15:24:21;1.90;99.90
21662;DHT22;10992;48.170;8.596;2022-12-07T15:26:48;1.90;99.90
21662;DHT22;10992;48.170;8.596;2022-12-07T15:29:15;1.80;99.90
21662;DHT22;10992;48.170;8.596;2022-12-07T15:31:53;1.80;99.90
21662;DHT22;10992;48.170;8.596;2022-12-07T15:34:26;1.80;99.90
21662;DHT22;10992;48.170;8.596;2022-12-07T15:36:59;1.70;99.90
21662;DHT22;10992;48.170;8.596;2022-12-07T15:39:25;1.70;99.90
21662;DHT22;10992;48.170;8.596;2022-12-07T15:41:52;1.70;99.90
21662;DHT22;10992;48.170;8.596;2022-12-07T15:44:19;1.60;99.90
21662;DHT22;10992;48.170;8.596;2022-12-07T15:47:05;1.60;99.90
21662;DHT22;10992;48.170;8.596;2022-12-07T15:49:32;1.50;99.90
21662;DHT22;10992;48.170;8.596;2022-12-07T15:51:59;1.50;99.90
21662;DHT22;10992;48.170;8.596;2022-12-07T15:54:28;1.50;99.90
21662;DHT22;10992;48.170;8.596;2022-12-07T15:56:56;1.50;99.90
21662;DHT22;10992;48.170;8.596;2022-12-07T15:59:23;1.50;99.90
21662;DHT22;10992;48.170;8.596;2022-12-07T16:01:51;1.40;99.90
21662;DHT22;10992;48.170;8.596;2022-12-07T16:04:18;1.50;99.90
21662;DHT22;10992;48.170;8.596;2022-12-07T16:06:45;1.50;99.90
21662;DHT22;10992;48.170;8.596;2022-12-07T16:09:12;1.40;99.90
21662;DHT22;10992;48.170;8.596;2022-12-07T16:11:39;1.40;99.90
21662;DHT22;10992;48.170;8.596;2022-12-07T16:14:06;1.40;99.90
21662;DHT22;10992;48.170;8.596;2022-12-07T16:16:33;1.40;99.90
21662;DHT22;10992;48.170;8.596;2022-12-07T16:19:00;1.40;99.90
21662;DHT22;10992;48.170;8.596;2022-12-07T16:21:29;1.40;99.90
21662;DHT22;10992;48.170;8.596;2022-12-07T16:23:57;1.30;99.90
21662;DHT22;10992;48.170;8.596;2022-12-07T16:26:25;1.30;99.90
21662;DHT22;10992;48.170;8.596;2022-12-07T16:28:53;1.30;99.90
21662;DHT22;10992;48.170;8.596;2022-12-07T16:31:22;1.40;99.90
21662;DHT22;10992;48.170;8.596;2022-12-07T16:33:50;1.50;99.90
21662;DHT22;10992;48.170;8.596;2022-12-07T16:36:19;1.50;99.90
21662;DHT22;10992;48.170;8.596;2022-12-07T16:39:08;1.40;99.90
21662;DHT22;10992;48.170;8.596;2022-12-07T16:41:35;1.30;99.90
21662;DHT22;10992;48.170;8.596;2022-12-07T16:44:05;1.20;99.90
21662;DHT22;10992;48.170;8.596;2022-12-07T16:46:33;1.10;99.90
21662;DHT22;10992;48.170;8.596;2022-12-07T16:49:00;1.10;99.90
21662;DHT22;10992;48.170;8.596;2022-12-07T16:51:27;1.00;99.90
21662;DHT22;10992;48.170;8.596;2022-12-07T16:53:54;0.90;99.90
21662;DHT22;10992;48.170;8.596;2022-12-07T16:56:21;0.90;99.90
21662;DHT22;10992;48.170;8.596;2022-12-07T16:58:48;0.80;99.90
21662;DHT22;10992;48.170;8.596;2022-12-07T17:01:21;0.80;99.90
21662;DHT22;10992;48.170;8.596;2022-12-07T17:03:49;0.80;99.90
21662;DHT22;10992;48.170;8.596;2022-12-07T17:06:21;0.70;99.90
21662;DHT22;10992;48.170;8.596;2022-12-07T17:08:49;0.70;99.90
21662;DHT22;10992;48.170;8.596;2022-12-07T17:11:21;0.50;99.90
21662;DHT22;10992;48.170;8.596;2022-12-07T17:13:49;0.40;99.90
21662;DHT22;10992;48.170;8.596;2022-12-07T17:16:35;0.40;99.90
21662;DHT22;10992;48.170;8.596;2022-12-07T17:19:07;0.30;99.90
21662;DHT22;10992;48.170;8.596;2022-12-07T17:21:34;0.30;99.90
21662;DHT22;10992;48.170;8.596;2022-12-07T17:24:03;0.30;99.90
21662;DHT22;10992;48.170;8.596;2022-12-07T17:26:30;0.30;99.90
21662;DHT22;10992;48.170;8.596;2022-12-07T17:29:03;0.30;99.90
21662;DHT22;10992;48.170;8.596;2022-12-07T17:31:30;0.30;99.90
21662;DHT22;10992;48.170;8.596;2022-12-07T17:33:57;0.30;99.90
21662;DHT22;10992;48.170;8.596;2022-12-07T17:36:27;0.30;99.90
21662;DHT22;10992;48.170;8.596;2022-12-07T17:38:54;0.30;99.90
21662;DHT22;10992;48.170;8.596;2022-12-07T17:41:26;0.30;99.90
21662;DHT22;10992;48.170;8.596;2022-12-07T17:44:14;0.20;99.90
21662;DHT22;10992;48.170;8.596;2022-12-07T17:46:42;0.20;99.90
21662;DHT22;10992;48.170;8.596;2022-12-07T17:49:09;0.20;99.90
21662;DHT22;10992;48.170;8.596;2022-12-07T17:51:35;0.20;99.90
21662;DHT22;10992;48.170;8.596;2022-12-07T17:54:22;0.20;99.90
21662;DHT22;10992;48.170;8.596;2022-12-07T17:56:49;0.10;99.90
21662;DHT22;10992;48.170;8.596;2022-12-07T17:59:16;0.00;99.90
21662;DHT22;10992;48.170;8.596;2022-12-07T18:01:44;-0.10;99.90
21662;DHT22;10992;48.170;8.596;2022-12-07T18:04:11;-0.10;99.90
21662;DHT22;10992;48.170;8.596;2022-12-07T18:06:38;-0.30;99.90
21662;DHT22;10992;48.170;8.596;2022-12-07T18:09:06;-0.40;99.90
21662;DHT22;10992;48.170;8.596;2022-12-07T18:11:33;-0.50;99.90
21662;DHT22;10992;48.170;8.596;2022-12-07T18:14:01;-0.60;99.90
21662;DHT22;10992;48.170;8.596;2022-12-07T18:16:29;-0.80;99.90
21662;DHT22;10992;48.170;8.596;2022-12-07T18:19:00;-1.00;99.90
21662;DHT22;10992;48.170;8.596;2022-12-07T18:21:29;-1.10;99.90
21662;DHT22;10992;48.170;8.596;2022-12-07T18:23:58;-1.20;99.90
21662;DHT22;10992;48.170;8.596;2022-12-07T18:26:30;-1.30;99.90
21662;DHT22;10992;48.170;8.596;2022-12-07T18:28:59;-1.30;99.90
21662;DHT22;10992;48.170;8.596;2022-12-07T18:31:27;-1.40;99.90
21662;DHT22;10992;48.170;8.596;2022-12-07T18:33:55;-1.50;99.90